createdAt,value
2022-10-22T00:01:12.135Z,14.78
2022-10-22T00:04:34.371Z,14.78
2022-10-22T00:07:24.147Z,14.74
2022-10-22T00:10:14.359Z,14.74
2022-10-22T00:13:07.206Z,14.73
2022-10-22T00:15:50.134Z,14.75
2022-10-22T00:18:46.893Z,14.79
2022-10-22T00:21:30.620Z,14.77
2022-10-22T00:24:32.234Z,14.81
2022-10-22T00:27:26.361Z,14.82
2022-10-22T00:30:25.174Z,14.80
2022-10-22T00:33:09.205Z,14.84
2022-10-22T00:36:16.586Z,14.85
2022-10-22T00:39:05.337Z,14.79
2022-10-22T00:41:47.783Z,14.79
2022-10-22T00:45:10.034Z,14.78
2022-10-22T00:47:49.899Z,14.76
2022-10-22T00:50:32.989Z,14.75
2022-10-22T00:53:12.979Z,14.77
2022-10-22T00:56:04.519Z,14.77
2022-10-22T00:58:43.113Z,14.77
2022-10-22T01:01:35.464Z,14.76
2022-10-22T01:04:13.565Z,14.75
2022-10-22T01:06:47.664Z,14.78
2022-10-22T01:09:36.797Z,14.74
2022-10-22T01:12:35.363Z,14.73
2022-10-22T01:15:25.634Z,14.70
2022-10-22T01:18:21.553Z,14.72
2022-10-22T01:21:13.463Z,14.73
2022-10-22T01:24:17.932Z,14.69
2022-10-22T01:27:02.699Z,14.69
2022-10-22T01:30:00.473Z,14.69
2022-10-22T01:32:49.547Z,14.73
2022-10-22T01:35:37.295Z,14.70
2022-10-22T01:38:26.150Z,14.68
2022-10-22T01:41:10.438Z,14.63
2022-10-22T01:43:58.696Z,14.62
2022-10-22T01:51:43.057Z,14.60
2022-10-22T01:54:50.620Z,14.59
2022-10-22T02:02:03.520Z,14.54
2022-10-22T02:04:48.014Z,14.55
2022-10-22T02:07:26.828Z,14.54
2022-10-22T02:10:11.722Z,14.57
2022-10-22T02:13:09.123Z,14.55
2022-10-22T02:16:00.583Z,14.51
2022-10-22T02:18:36.368Z,14.51
2022-10-22T02:21:11.832Z,14.53
2022-10-22T02:23:47.345Z,14.52
2022-10-22T02:27:02.088Z,14.55
2022-10-22T02:30:44.131Z,14.45
2022-10-22T02:33:40.613Z,14.45
2022-10-22T02:36:26.376Z,14.41
2022-10-22T02:39:04.873Z,14.40
2022-10-22T02:41:43.419Z,14.39
2022-10-22T02:44:55.834Z,14.42
2022-10-22T02:48:00.314Z,14.31
2022-10-22T02:50:32.930Z,14.29
2022-10-22T02:57:46.716Z,14.22
2022-10-22T03:00:30.707Z,14.21
2022-10-22T03:03:37.020Z,14.22
2022-10-22T03:06:07.544Z,14.17
2022-10-22T03:08:37.175Z,14.17
2022-10-22T03:11:08.760Z,14.12
2022-10-22T03:13:41.647Z,14.10
2022-10-22T03:16:11.360Z,14.09
2022-10-22T03:18:43.605Z,14.13
2022-10-22T03:21:29.223Z,14.13
2022-10-22T03:24:00.876Z,14.12
2022-10-22T03:26:30.433Z,14.13
2022-10-22T03:29:06.568Z,14.10
2022-10-22T03:32:09.358Z,14.07
2022-10-22T03:34:43.357Z,14.10
2022-10-22T03:37:13.504Z,14.07
2022-10-22T03:39:43.120Z,14.07
2022-10-22T03:42:16.610Z,14.04
2022-10-22T03:44:49.978Z,14.09
2022-10-22T03:47:22.233Z,14.10
2022-10-22T03:49:54.446Z,14.08
2022-10-22T03:52:29.881Z,14.04
2022-10-22T03:55:04.313Z,14.07
2022-10-22T03:57:34.287Z,13.96
2022-10-22T04:00:07.578Z,13.97
2022-10-22T04:02:47.421Z,13.95
2022-10-22T04:05:39.626Z,13.89
2022-10-22T04:08:26.359Z,13.88
2022-10-22T04:11:05.236Z,13.85
2022-10-22T04:13:45.996Z,13.85
2022-10-22T04:16:26.163Z,13.75
2022-10-22T04:19:24.247Z,13.74
2022-10-22T04:21:55.603Z,13.72
2022-10-22T04:24:37.206Z,13.70
2022-10-22T04:27:12.311Z,13.65
2022-10-22T04:29:42.486Z,13.63
2022-10-22T04:32:20.337Z,13.64
2022-10-22T04:34:54.966Z,13.60
2022-10-22T04:37:27.674Z,13.59
2022-10-22T04:40:04.209Z,13.62
2022-10-22T04:42:35.763Z,13.56
2022-10-22T04:45:10.460Z,13.55
2022-10-22T04:47:48.614Z,13.50
2022-10-22T04:50:40.322Z,13.48
2022-10-22T04:53:41.509Z,13.48
2022-10-22T04:56:18.563Z,13.45
2022-10-22T04:58:53.325Z,13.39
2022-10-22T05:01:43.664Z,13.34
2022-10-22T05:04:20.698Z,13.36
2022-10-22T05:06:54.812Z,13.27
2022-10-22T05:09:32.305Z,13.25
2022-10-22T05:12:09.567Z,13.24
2022-10-22T05:14:44.793Z,13.21
2022-10-22T05:17:21.154Z,13.17
2022-10-22T05:19:51.684Z,13.19
2022-10-22T05:22:21.023Z,13.14
2022-10-22T05:24:51.846Z,13.12
2022-10-22T05:27:20.956Z,13.12
2022-10-22T05:29:49.964Z,13.07
2022-10-22T05:32:28.037Z,13.02
2022-10-22T05:35:17.794Z,12.99
2022-10-22T05:38:00.342Z,13.00
2022-10-22T05:40:33.028Z,12.95
2022-10-22T05:43:12.264Z,12.91
2022-10-22T05:45:50.029Z,12.86
2022-10-22T05:48:20.356Z,12.87
2022-10-22T05:50:57.256Z,12.82
2022-10-22T05:53:40.182Z,12.83
2022-10-22T05:56:23.820Z,12.81
2022-10-22T05:58:59.077Z,12.78
2022-10-22T06:01:37.797Z,12.77
2022-10-22T06:04:27.639Z,12.72
2022-10-22T06:07:07.620Z,12.72
2022-10-22T06:09:50.376Z,12.63
2022-10-22T06:12:42.781Z,12.64
2022-10-22T06:15:59.493Z,12.61
2022-10-22T06:18:49.126Z,12.61
2022-10-22T06:21:43.881Z,12.59
2022-10-22T06:24:32.095Z,12.59
2022-10-22T06:27:18.474Z,12.57
2022-10-22T06:30:10.130Z,12.54
2022-10-22T06:32:40.076Z,12.56
2022-10-22T06:35:34.503Z,12.56
2022-10-22T06:38:21.301Z,12.53
2022-10-22T06:41:16.765Z,12.52
2022-10-22T06:44:18.343Z,12.52
2022-10-22T06:47:15.119Z,12.52
2022-10-22T06:50:05.409Z,12.56
2022-10-22T06:52:45.489Z,12.51
2022-10-22T06:55:27.419Z,12.49
2022-10-22T06:58:30.461Z,12.54
2022-10-22T07:01:19.951Z,12.53
2022-10-22T07:04:12.619Z,12.58
2022-10-22T07:06:49.138Z,12.56
2022-10-22T07:10:09.704Z,12.64
2022-10-22T07:13:49.126Z,12.61
2022-10-22T07:16:49.831Z,12.70
2022-10-22T07:19:34.819Z,12.70
2022-10-22T07:22:05.570Z,12.75
2022-10-22T07:24:43.813Z,12.77
2022-10-22T07:27:18.547Z,12.80
2022-10-22T07:29:56.780Z,12.85
2022-10-22T07:32:47.319Z,12.90
2022-10-22T07:35:40.490Z,12.94
2022-10-22T07:38:21.720Z,12.99
2022-10-22T07:40:58.703Z,13.00
2022-10-22T07:43:40.314Z,12.98
2022-10-22T07:46:23.655Z,13.08
2022-10-22T07:49:42.773Z,13.09
2022-10-22T07:53:05.084Z,13.09
2022-10-22T07:56:13.915Z,13.08
2022-10-22T07:59:20.999Z,13.11
2022-10-22T08:02:25.757Z,13.11
2022-10-22T08:05:42.466Z,13.12
2022-10-22T08:08:31.041Z,13.12
2022-10-22T08:11:07.452Z,13.13
2022-10-22T08:14:05.829Z,13.15
2022-10-22T08:17:21.904Z,13.19
2022-10-22T08:20:05.130Z,13.22
2022-10-22T08:23:34.958Z,13.20
2022-10-22T08:26:38.693Z,13.22
2022-10-22T08:29:46.469Z,13.29
2022-10-22T08:32:42.355Z,13.32
2022-10-22T08:35:57.224Z,13.33
2022-10-22T08:39:08.668Z,13.39
2022-10-22T08:42:56.555Z,13.40
2022-10-22T08:46:30.335Z,13.43
2022-10-22T08:53:30.001Z,13.52
2022-10-22T08:57:15.627Z,13.51
2022-10-22T09:00:43.098Z,13.57
2022-10-22T09:04:19.207Z,13.57
2022-10-22T09:10:42.568Z,13.66
2022-10-22T09:13:46.724Z,13.66
2022-10-22T09:16:49.872Z,13.71
2022-10-22T09:19:52.639Z,13.72
2022-10-22T09:22:54.412Z,13.79
2022-10-22T09:25:35.174Z,13.86
2022-10-22T09:28:14.405Z,13.90
2022-10-22T09:30:47.445Z,13.96
2022-10-22T09:33:31.145Z,14.04
2022-10-22T09:36:09.776Z,14.12
2022-10-22T09:38:43.371Z,14.19
2022-10-22T09:41:21.689Z,14.26
2022-10-22T09:43:55.246Z,14.43
2022-10-22T09:46:47.012Z,14.46
2022-10-22T09:49:43.690Z,14.59
2022-10-22T09:53:03.521Z,14.81
2022-10-22T09:56:00.483Z,15.08
2022-10-22T09:58:53.559Z,15.25
2022-10-22T10:01:36.500Z,15.35
2022-10-22T10:04:14.170Z,15.58
2022-10-22T10:07:05.045Z,15.70
2022-10-22T10:09:59.686Z,15.94
2022-10-22T10:19:35.946Z,16.46
2022-10-22T10:23:14.718Z,16.64
2022-10-22T10:25:59.165Z,16.73
2022-10-22T10:33:12.838Z,16.82
2022-10-22T10:36:31.286Z,16.87
2022-10-22T10:40:01.052Z,16.92
2022-10-22T10:43:34.880Z,16.84
2022-10-22T10:46:36.947Z,16.76
2022-10-22T11:04:03.676Z,16.70
2022-10-22T11:12:33.483Z,16.71
2022-10-22T11:16:31.732Z,16.77
2022-10-22T11:20:00.222Z,16.88
2022-10-22T11:23:18.201Z,16.99
2022-10-22T11:26:18.727Z,17.15
2022-10-22T11:38:25.812Z,17.25
2022-10-22T11:41:05.940Z,17.31
2022-10-22T11:43:37.198Z,17.30
2022-10-22T11:46:34.502Z,17.33
2022-10-22T11:49:18.666Z,17.38
2022-10-22T11:52:27.111Z,17.34
2022-10-22T11:54:59.352Z,17.36
2022-10-22T11:57:38.518Z,17.31
2022-10-22T12:00:12.548Z,17.40
2022-10-22T12:02:46.481Z,17.54
2022-10-22T12:05:46.096Z,17.75
2022-10-22T12:08:33.789Z,17.97
2022-10-22T12:11:08.549Z,18.02
2022-10-22T12:16:58.181Z,18.20
2022-10-22T12:19:32.257Z,18.19
2022-10-22T12:22:19.786Z,18.27
2022-10-22T12:24:51.662Z,18.36
2022-10-22T12:27:23.767Z,18.49
2022-10-22T12:29:59.023Z,18.49
2022-10-22T12:33:06.289Z,18.67
2022-10-22T12:35:52.321Z,18.68
2022-10-22T12:39:50.515Z,18.85
2022-10-22T12:42:52.423Z,18.87
2022-10-22T12:45:22.815Z,18.63
2022-10-22T12:48:06.357Z,18.49
2022-10-22T12:50:57.509Z,18.33
2022-10-22T12:53:33.827Z,18.30
2022-10-22T12:56:10.333Z,18.24
2022-10-22T12:58:42.871Z,18.33
2022-10-22T13:01:13.356Z,18.32
2022-10-22T13:03:46.033Z,18.36
2022-10-22T13:06:24.359Z,18.24
2022-10-22T13:09:16.184Z,18.24
2022-10-22T13:11:52.042Z,18.03
2022-10-22T13:14:40.245Z,17.91
2022-10-22T13:18:06.668Z,18.01
2022-10-22T13:21:09.859Z,17.86
2022-10-22T13:23:43.213Z,17.79
2022-10-22T13:26:44.874Z,17.78
2022-10-22T13:29:27.203Z,17.75
2022-10-22T13:32:01.691Z,17.76
2022-10-22T13:34:41.251Z,17.81
2022-10-22T13:37:17.081Z,17.90
2022-10-22T13:39:59.059Z,17.77
2022-10-22T13:43:04.173Z,17.74
2022-10-22T13:45:38.192Z,17.66
2022-10-22T13:48:32.091Z,17.55
2022-10-22T13:52:14.895Z,17.57
2022-10-22T13:55:02.612Z,17.45
2022-10-22T13:57:40.213Z,17.44
2022-10-22T14:00:21.272Z,17.54
2022-10-22T14:02:56.431Z,17.59
2022-10-22T14:05:26.031Z,17.61
2022-10-22T14:07:55.337Z,17.51
2022-10-22T14:10:28.115Z,17.56
2022-10-22T14:12:58.752Z,17.55
2022-10-22T14:15:32.636Z,17.53
2022-10-22T14:18:03.225Z,17.47
2022-10-22T14:21:07.201Z,17.47
2022-10-22T14:23:41.295Z,17.50
2022-10-22T14:26:21.033Z,17.45
2022-10-22T14:29:08.759Z,17.37
2022-10-22T14:34:15.508Z,17.38
2022-10-22T14:36:49.970Z,17.35
2022-10-22T14:39:22.970Z,17.34
2022-10-22T14:41:57.808Z,17.31
2022-10-22T14:44:36.638Z,17.22
2022-10-22T14:49:57.090Z,17.21
2022-10-22T14:53:08.023Z,17.16
2022-10-22T14:55:45.129Z,17.18
2022-10-22T14:58:19.516Z,17.15
2022-10-22T15:01:02.045Z,17.14
2022-10-22T15:03:40.534Z,17.16
2022-10-22T15:06:47.669Z,17.17
2022-10-22T15:12:59.858Z,17.20
2022-10-22T15:21:28.998Z,17.16
2022-10-22T15:25:37.326Z,17.24
2022-10-22T15:31:47.511Z,17.17
2022-10-22T15:34:28.594Z,17.09
2022-10-22T15:38:27.486Z,17.08
2022-10-22T15:45:18.847Z,17.02
2022-10-22T15:48:06.876Z,17.02
2022-10-22T15:50:47.135Z,16.98
2022-10-22T15:53:21.558Z,16.97
2022-10-22T15:55:58.432Z,16.96
2022-10-22T15:58:38.591Z,16.90
2022-10-22T16:05:29.940Z,16.80
2022-10-22T16:08:14.565Z,16.75
2022-10-22T16:11:21.079Z,16.76
2022-10-22T16:14:59.095Z,16.67
2022-10-22T16:17:43.336Z,16.67
2022-10-22T16:20:16.659Z,16.63
2022-10-22T16:23:02.905Z,16.62
2022-10-22T16:26:05.717Z,16.62
2022-10-22T16:28:46.464Z,16.55
2022-10-22T16:31:30.588Z,16.50
2022-10-22T16:34:27.793Z,16.50
2022-10-22T16:37:36.580Z,16.53
2022-10-22T16:40:54.087Z,16.45
2022-10-22T16:48:24.161Z,16.33
2022-10-22T16:51:56.452Z,16.31
2022-10-22T16:54:26.468Z,16.33
2022-10-22T16:57:09.065Z,16.28
2022-10-22T16:59:38.724Z,16.22
2022-10-22T17:02:07.779Z,16.23
2022-10-22T17:04:44.243Z,16.15
2022-10-22T17:07:21.414Z,16.14
2022-10-22T17:09:50.224Z,16.14
2022-10-22T17:12:32.216Z,16.13
2022-10-22T17:15:01.273Z,16.04
2022-10-22T17:17:41.786Z,16.04
2022-10-22T17:20:33.222Z,15.99
2022-10-22T17:23:08.660Z,15.97
2022-10-22T17:25:49.735Z,15.94
2022-10-22T17:28:42.047Z,15.91
2022-10-22T17:31:21.587Z,15.90
2022-10-22T17:33:52.638Z,15.92
2022-10-22T17:36:23.111Z,15.95
2022-10-22T17:38:53.733Z,15.86
2022-10-22T17:41:25.254Z,15.83
2022-10-22T17:44:15.367Z,15.79
2022-10-22T17:46:51.282Z,15.80
2022-10-22T17:49:27.813Z,15.78
2022-10-22T17:51:56.990Z,15.72
2022-10-22T17:54:26.326Z,15.72
2022-10-22T17:56:58.651Z,15.63
2022-10-22T17:59:29.670Z,15.63
2022-10-22T18:02:02.350Z,15.62
2022-10-22T18:04:34.527Z,15.63
2022-10-22T18:07:06.169Z,15.57
2022-10-22T18:09:38.145Z,15.48
2022-10-22T18:12:11.543Z,15.51
2022-10-22T18:14:48.444Z,15.51
2022-10-22T18:17:18.540Z,15.51
2022-10-22T18:19:49.770Z,15.41
2022-10-22T18:22:18.555Z,15.41
2022-10-22T18:24:49.397Z,15.38
2022-10-22T18:27:18.518Z,15.41
2022-10-22T18:30:05.402Z,15.38
2022-10-22T18:39:18.073Z,15.33
2022-10-22T18:41:58.647Z,15.34
2022-10-22T18:44:27.818Z,15.30
2022-10-22T18:47:09.858Z,15.28
2022-10-22T18:53:07.176Z,15.34
2022-10-22T18:56:09.197Z,15.32
2022-10-22T18:58:47.267Z,15.21
2022-10-22T19:04:49.985Z,15.28
2022-10-22T19:07:23.279Z,15.36
2022-10-22T19:10:27.721Z,15.35
2022-10-22T19:13:07.981Z,15.24
2022-10-22T19:15:48.429Z,15.33
2022-10-22T19:18:25.418Z,15.24
2022-10-22T19:21:12.307Z,15.31
2022-10-22T19:31:38.629Z,15.12
2022-10-22T19:34:37.171Z,15.19
2022-10-22T19:37:20.050Z,15.18
2022-10-22T19:43:04.614Z,15.10
2022-10-22T19:45:58.360Z,15.12
2022-10-22T19:49:44.270Z,15.20
2022-10-22T19:52:48.309Z,15.14
2022-10-22T19:55:54.161Z,15.06
2022-10-22T20:06:12.430Z,15.06
2022-10-22T20:09:30.472Z,15.06
2022-10-22T20:12:24.957Z,15.01
2022-10-22T20:14:54.985Z,15.04
2022-10-22T20:17:25.391Z,15.01
2022-10-22T20:19:56.655Z,15.02
2022-10-22T20:22:25.954Z,15.01
2022-10-22T20:24:55.058Z,14.99
2022-10-22T20:27:25.564Z,14.96
2022-10-22T20:29:54.917Z,15.02
2022-10-22T20:32:28.212Z,15.01
2022-10-22T20:34:57.355Z,14.99
2022-10-22T20:37:27.064Z,15.01
2022-10-22T20:40:03.437Z,15.01
2022-10-22T20:42:35.974Z,15.00
2022-10-22T20:45:05.240Z,15.06
2022-10-22T20:47:51.253Z,15.04
2022-10-22T20:50:21.558Z,15.05
2022-10-22T20:52:50.724Z,15.04
2022-10-22T20:55:45.517Z,15.04
2022-10-22T20:58:20.692Z,14.99
2022-10-22T21:00:56.473Z,15.02
2022-10-22T21:03:25.621Z,14.98
2022-10-22T21:05:59.207Z,14.97
2022-10-22T21:08:28.712Z,15.02
2022-10-22T21:15:37.832Z,15.07
2022-10-22T21:18:09.753Z,15.08
2022-10-22T21:20:41.598Z,15.06
2022-10-22T21:23:17.294Z,15.02
2022-10-22T21:25:55.483Z,15.06
2022-10-22T21:28:24.467Z,15.09
2022-10-22T21:30:54.509Z,15.08
2022-10-22T21:33:23.078Z,15.06
2022-10-22T21:35:53.279Z,15.08
2022-10-22T21:38:24.110Z,15.08
2022-10-22T21:40:53.010Z,15.12
2022-10-22T21:43:24.547Z,15.08
2022-10-22T21:46:07.878Z,15.08
2022-10-22T21:48:40.679Z,15.08
2022-10-22T21:51:11.260Z,15.03
2022-10-22T21:53:42.040Z,15.04
2022-10-22T21:56:20.246Z,15.05
2022-10-22T21:58:55.920Z,15.02
2022-10-22T22:01:30.701Z,14.97
2022-10-22T22:04:08.524Z,15.00
2022-10-22T22:06:37.767Z,14.99
2022-10-22T22:09:10.482Z,14.95
2022-10-22T22:11:39.543Z,14.97
2022-10-22T22:14:09.058Z,14.95
2022-10-22T22:16:45.979Z,14.91
2022-10-22T22:19:40.132Z,14.90
2022-10-22T22:22:12.566Z,14.86
2022-10-22T22:24:45.449Z,14.93
2022-10-22T22:27:17.688Z,14.89
2022-10-22T22:29:46.658Z,14.89
2022-10-22T22:32:17.243Z,14.87
2022-10-22T22:34:46.426Z,14.83
2022-10-22T22:37:15.841Z,14.85
2022-10-22T22:39:45.977Z,14.93
2022-10-22T22:42:15.285Z,14.85
2022-10-22T22:44:44.791Z,14.91
2022-10-22T22:47:13.425Z,14.91
2022-10-22T22:49:44.390Z,14.88
2022-10-22T22:52:12.888Z,14.88
2022-10-22T22:54:41.443Z,14.88
2022-10-22T22:57:09.742Z,14.90
2022-10-22T22:59:37.939Z,14.91
2022-10-22T23:02:33.606Z,14.88
2022-10-22T23:05:04.256Z,14.87
2022-10-22T23:07:34.068Z,14.86
2022-10-22T23:10:03.119Z,14.92
2022-10-22T23:12:31.922Z,14.96
2022-10-22T23:15:02.356Z,14.93
2022-10-22T23:17:32.539Z,14.94
2022-10-22T23:20:01.301Z,14.88
2022-10-22T23:22:31.189Z,14.90
2022-10-22T23:24:59.917Z,14.92
2022-10-22T23:27:28.590Z,14.94
2022-10-22T23:29:58.193Z,14.90
2022-10-22T23:32:26.939Z,14.93
2022-10-22T23:34:55.393Z,14.94
2022-10-22T23:37:23.971Z,14.89
2022-10-22T23:39:54.561Z,14.89
2022-10-22T23:42:30.596Z,14.89
2022-10-22T23:44:59.050Z,14.87
2022-10-22T23:47:27.575Z,14.86
2022-10-22T23:49:56.074Z,14.85
2022-10-22T23:52:24.379Z,14.87
2022-10-22T23:54:54.493Z,14.85
2022-10-22T23:57:22.966Z,14.91
2022-10-22T23:59:51.677Z,14.93
